sensor_id;sensor_type;location;lat;lon;timestamp;P1;durP1;ratioP1;P2;durP2;ratioP2
56037;SDS011;41907;47.848;9.000;2023-09-12T00:00:32;13.32;;;10.02;;
56037;SDS011;41907;47.848;9.000;2023-09-12T00:02:57;12.82;;;10.35;;
56037;SDS011;41907;47.848;9.000;2023-09-12T00:05:23;11.85;;;9.95;;
56037;SDS011;41907;47.848;9.000;2023-09-12T00:07:51;13.23;;;10.27;;
56037;SDS011;41907;47.848;9.000;2023-09-12T00:10:17;13.77;;;10.38;;
56037;SDS011;41907;47.848;9.000;2023-09-12T00:12:42;12.18;;;9.75;;
56037;SDS011;41907;47.848;9.000;2023-09-12T00:15:08;15.18;;;10.88;;
56037;SDS011;41907;47.848;9.000;2023-09-12T00:17:33;11.70;;;9.80;;
56037;SDS011;41907;47.848;9.000;2023-09-12T00:19:59;12.55;;;9.65;;
56037;SDS011;41907;47.848;9.000;2023-09-12T00:22:24;13.55;;;11.32;;
56037;SDS011;41907;47.848;9.000;2023-09-12T00:24:49;20.92;;;10.88;;
56037;SDS011;41907;47.848;9.000;2023-09-12T00:27:15;13.50;;;9.88;;
56037;SDS011;41907;47.848;9.000;2023-09-12T00:29:40;13.40;;;10.45;;
56037;SDS011;41907;47.848;9.000;2023-09-12T00:32:05;10.73;;;9.35;;
56037;SDS011;41907;47.848;9.000;2023-09-12T00:34:30;12.20;;;9.02;;
56037;SDS011;41907;47.848;9.000;2023-09-12T00:36:56;11.98;;;9.27;;
56037;SDS011;41907;47.848;9.000;2023-09-12T00:39:21;13.05;;;8.90;;
56037;SDS011;41907;47.848;9.000;2023-09-12T00:41:46;12.07;;;8.82;;
56037;SDS011;41907;47.848;9.000;2023-09-12T00:44:12;13.73;;;9.68;;
56037;SDS011;41907;47.848;9.000;2023-09-12T00:46:37;11.10;;;9.52;;
56037;SDS011;41907;47.848;9.000;2023-09-12T00:49:04;9.88;;;8.80;;
56037;SDS011;41907;47.848;9.000;2023-09-12T00:51:32;12.25;;;9.57;;
56037;SDS011;41907;47.848;9.000;2023-09-12T00:53:59;11.80;;;9.95;;
56037;SDS011;41907;47.848;9.000;2023-09-12T00:56:25;14.40;;;10.38;;
56037;SDS011;41907;47.848;9.000;2023-09-12T00:58:51;12.02;;;9.05;;
56037;SDS011;41907;47.848;9.000;2023-09-12T01:01:17;9.82;;;8.20;;
56037;SDS011;41907;47.848;9.000;2023-09-12T01:03:46;14.15;;;9.27;;
56037;SDS011;41907;47.848;9.000;2023-09-12T01:06:11;9.45;;;8.43;;
56037;SDS011;41907;47.848;9.000;2023-09-12T01:08:39;13.23;;;8.65;;
56037;SDS011;41907;47.848;9.000;2023-09-12T01:11:04;12.95;;;9.52;;
56037;SDS011;41907;47.848;9.000;2023-09-12T01:13:31;12.52;;;8.43;;
56037;SDS011;41907;47.848;9.000;2023-09-12T01:15:56;11.80;;;10.07;;
56037;SDS011;41907;47.848;9.000;2023-09-12T01:18:22;15.70;;;9.65;;
56037;SDS011;41907;47.848;9.000;2023-09-12T01:21:02;13.20;;;11.10;;
56037;SDS011;41907;47.848;9.000;2023-09-12T01:23:42;13.50;;;9.88;;
56037;SDS011;41907;47.848;9.000;2023-09-12T01:26:17;12.30;;;10.35;;
56037;SDS011;41907;47.848;9.000;2023-09-12T01:29:02;14.02;;;10.32;;
56037;SDS011;41907;47.848;9.000;2023-09-12T01:31:31;12.25;;;9.25;;
56037;SDS011;41907;47.848;9.000;2023-09-12T01:33:58;11.10;;;9.65;;
56037;SDS011;41907;47.848;9.000;2023-09-12T01:36:33;16.77;;;10.32;;
56037;SDS011;41907;47.848;9.000;2023-09-12T01:38:58;14.15;;;10.18;;
56037;SDS011;41907;47.848;9.000;2023-09-12T01:41:24;13.23;;;9.82;;
56037;SDS011;41907;47.848;9.000;2023-09-12T01:43:50;14.25;;;10.38;;
56037;SDS011;41907;47.848;9.000;2023-09-12T01:46:16;13.80;;;10.52;;
56037;SDS011;41907;47.848;9.000;2023-09-12T01:48:43;15.07;;;10.20;;
56037;SDS011;41907;47.848;9.000;2023-09-12T01:51:09;12.90;;;9.50;;
56037;SDS011;41907;47.848;9.000;2023-09-12T01:53:36;13.02;;;10.20;;
56037;SDS011;41907;47.848;9.000;2023-09-12T01:56:03;10.95;;;8.93;;
56037;SDS011;41907;47.848;9.000;2023-09-12T01:58:28;13.07;;;9.48;;
56037;SDS011;41907;47.848;9.000;2023-09-12T02:00:54;12.68;;;9.63;;
56037;SDS011;41907;47.848;9.000;2023-09-12T02:03:19;12.57;;;9.05;;
56037;SDS011;41907;47.848;9.000;2023-09-12T02:05:44;14.23;;;9.30;;
56037;SDS011;41907;47.848;9.000;2023-09-12T02:08:10;12.20;;;9.85;;
56037;SDS011;41907;47.848;9.000;2023-09-12T02:10:35;16.20;;;8.80;;
56037;SDS011;41907;47.848;9.000;2023-09-12T02:13:00;14.57;;;9.32;;
56037;SDS011;41907;47.848;9.000;2023-09-12T02:15:26;13.18;;;8.95;;
56037;SDS011;41907;47.848;9.000;2023-09-12T02:17:51;13.52;;;8.68;;
56037;SDS011;41907;47.848;9.000;2023-09-12T02:20:17;11.35;;;8.57;;
56037;SDS011;41907;47.848;9.000;2023-09-12T02:22:43;13.02;;;9.40;;
56037;SDS011;41907;47.848;9.000;2023-09-12T02:25:08;15.98;;;9.93;;
56037;SDS011;41907;47.848;9.000;2023-09-12T02:27:34;14.35;;;9.70;;
56037;SDS011;41907;47.848;9.000;2023-09-12T02:29:59;13.57;;;8.75;;
56037;SDS011;41907;47.848;9.000;2023-09-12T02:32:25;12.98;;;9.50;;
56037;SDS011;41907;47.848;9.000;2023-09-12T02:34:50;12.65;;;8.68;;
56037;SDS011;41907;47.848;9.000;2023-09-12T02:37:15;11.15;;;8.60;;
56037;SDS011;41907;47.848;9.000;2023-09-12T02:39:41;11.77;;;9.13;;
56037;SDS011;41907;47.848;9.000;2023-09-12T02:42:06;11.38;;;9.10;;
56037;SDS011;41907;47.848;9.000;2023-09-12T02:44:32;11.65;;;8.85;;
56037;SDS011;41907;47.848;9.000;2023-09-12T02:46:57;14.00;;;9.43;;
56037;SDS011;41907;47.848;9.000;2023-09-12T02:49:22;15.77;;;9.10;;
56037;SDS011;41907;47.848;9.000;2023-09-12T02:51:48;11.98;;;8.50;;
56037;SDS011;41907;47.848;9.000;2023-09-12T02:54:13;10.32;;;8.80;;
56037;SDS011;41907;47.848;9.000;2023-09-12T02:56:38;11.88;;;8.32;;
56037;SDS011;41907;47.848;9.000;2023-09-12T02:59:04;11.15;;;9.23;;
56037;SDS011;41907;47.848;9.000;2023-09-12T03:01:30;12.27;;;9.32;;
56037;SDS011;41907;47.848;9.000;2023-09-12T03:03:55;13.40;;;8.98;;
56037;SDS011;41907;47.848;9.000;2023-09-12T03:06:20;10.32;;;9.05;;
56037;SDS011;41907;47.848;9.000;2023-09-12T03:08:46;13.63;;;9.43;;
56037;SDS011;41907;47.848;9.000;2023-09-12T03:11:15;11.93;;;9.73;;
56037;SDS011;41907;47.848;9.000;2023-09-12T03:13:41;10.85;;;9.18;;
56037;SDS011;41907;47.848;9.000;2023-09-12T03:16:09;11.57;;;9.02;;
56037;SDS011;41907;47.848;9.000;2023-09-12T03:18:35;15.30;;;10.15;;
56037;SDS011;41907;47.848;9.000;2023-09-12T03:21:01;15.43;;;10.05;;
56037;SDS011;41907;47.848;9.000;2023-09-12T03:23:26;12.00;;;9.50;;
56037;SDS011;41907;47.848;9.000;2023-09-12T03:25:52;13.57;;;9.13;;
56037;SDS011;41907;47.848;9.000;2023-09-12T03:28:17;11.85;;;9.38;;
56037;SDS011;41907;47.848;9.000;2023-09-12T03:30:43;15.65;;;10.25;;
56037;SDS011;41907;47.848;9.000;2023-09-12T03:33:08;13.45;;;9.40;;
56037;SDS011;41907;47.848;9.000;2023-09-12T03:35:33;14.98;;;8.65;;
56037;SDS011;41907;47.848;9.000;2023-09-12T03:37:59;14.60;;;9.05;;
56037;SDS011;41907;47.848;9.000;2023-09-12T03:40:27;12.95;;;8.93;;
56037;SDS011;41907;47.848;9.000;2023-09-12T03:42:55;13.25;;;8.95;;
56037;SDS011;41907;47.848;9.000;2023-09-12T03:45:20;13.48;;;8.45;;
56037;SDS011;41907;47.848;9.000;2023-09-12T03:47:45;11.27;;;8.82;;
56037;SDS011;41907;47.848;9.000;2023-09-12T03:50:12;13.20;;;9.50;;
56037;SDS011;41907;47.848;9.000;2023-09-12T03:52:38;11.90;;;8.65;;
56037;SDS011;41907;47.848;9.000;2023-09-12T03:55:03;10.40;;;8.20;;
56037;SDS011;41907;47.848;9.000;2023-09-12T03:57:29;9.98;;;8.30;;
56037;SDS011;41907;47.848;9.000;2023-09-12T03:59:54;10.73;;;8.23;;
56037;SDS011;41907;47.848;9.000;2023-09-12T04:02:19;13.68;;;9.15;;
56037;SDS011;41907;47.848;9.000;2023-09-12T04:04:45;12.73;;;8.68;;
56037;SDS011;41907;47.848;9.000;2023-09-12T04:07:10;9.85;;;8.63;;
56037;SDS011;41907;47.848;9.000;2023-09-12T04:09:35;11.00;;;8.27;;
56037;SDS011;41907;47.848;9.000;2023-09-12T04:12:01;12.13;;;8.45;;
56037;SDS011;41907;47.848;9.000;2023-09-12T04:14:26;12.38;;;9.20;;
56037;SDS011;41907;47.848;9.000;2023-09-12T04:16:52;12.20;;;8.93;;
56037;SDS011;41907;47.848;9.000;2023-09-12T04:19:17;11.13;;;9.02;;
56037;SDS011;41907;47.848;9.000;2023-09-12T04:21:42;13.02;;;9.43;;
56037;SDS011;41907;47.848;9.000;2023-09-12T04:24:08;13.20;;;8.73;;
56037;SDS011;41907;47.848;9.000;2023-09-12T04:26:33;16.70;;;9.60;;
56037;SDS011;41907;47.848;9.000;2023-09-12T04:28:59;15.80;;;8.93;;
56037;SDS011;41907;47.848;9.000;2023-09-12T04:31:24;13.60;;;9.60;;
56037;SDS011;41907;47.848;9.000;2023-09-12T04:33:50;12.40;;;9.32;;
56037;SDS011;41907;47.848;9.000;2023-09-12T04:36:17;13.63;;;9.20;;
56037;SDS011;41907;47.848;9.000;2023-09-12T04:38:42;12.13;;;9.27;;
56037;SDS011;41907;47.848;9.000;2023-09-12T04:41:08;14.93;;;8.90;;
56037;SDS011;41907;47.848;9.000;2023-09-12T04:43:33;14.35;;;9.90;;
56037;SDS011;41907;47.848;9.000;2023-09-12T04:45:59;14.20;;;9.60;;
56037;SDS011;41907;47.848;9.000;2023-09-12T04:48:24;13.77;;;10.07;;
56037;SDS011;41907;47.848;9.000;2023-09-12T04:50:50;13.95;;;9.05;;
56037;SDS011;41907;47.848;9.000;2023-09-12T04:53:15;12.63;;;8.68;;
56037;SDS011;41907;47.848;9.000;2023-09-12T04:55:40;13.45;;;9.05;;
56037;SDS011;41907;47.848;9.000;2023-09-12T04:58:07;11.93;;;8.65;;
56037;SDS011;41907;47.848;9.000;2023-09-12T05:00:32;14.88;;;9.55;;
56037;SDS011;41907;47.848;9.000;2023-09-12T05:02:58;13.05;;;8.73;;
56037;SDS011;41907;47.848;9.000;2023-09-12T05:05:24;11.65;;;9.10;;
56037;SDS011;41907;47.848;9.000;2023-09-12T05:07:50;15.35;;;9.40;;
56037;SDS011;41907;47.848;9.000;2023-09-12T05:10:16;14.70;;;9.20;;
56037;SDS011;41907;47.848;9.000;2023-09-12T05:12:41;14.43;;;9.20;;
56037;SDS011;41907;47.848;9.000;2023-09-12T05:15:07;15.05;;;10.15;;
56037;SDS011;41907;47.848;9.000;2023-09-12T05:17:32;15.85;;;9.00;;
56037;SDS011;41907;47.848;9.000;2023-09-12T05:19:58;14.35;;;9.10;;
56037;SDS011;41907;47.848;9.000;2023-09-12T05:22:23;15.98;;;8.35;;
56037;SDS011;41907;47.848;9.000;2023-09-12T05:24:49;16.08;;;9.02;;
56037;SDS011;41907;47.848;9.000;2023-09-12T05:27:14;16.77;;;9.65;;
56037;SDS011;41907;47.848;9.000;2023-09-12T05:29:40;16.77;;;8.77;;
56037;SDS011;41907;47.848;9.000;2023-09-12T05:32:05;15.73;;;8.90;;
56037;SDS011;41907;47.848;9.000;2023-09-12T05:34:31;21.85;;;9.07;;
56037;SDS011;41907;47.848;9.000;2023-09-12T05:36:56;15.73;;;8.48;;
56037;SDS011;41907;47.848;9.000;2023-09-12T05:39:22;15.20;;;8.95;;
56037;SDS011;41907;47.848;9.000;2023-09-12T05:41:48;15.32;;;9.10;;
56037;SDS011;41907;47.848;9.000;2023-09-12T05:44:14;12.85;;;8.05;;
56037;SDS011;41907;47.848;9.000;2023-09-12T05:46:44;14.55;;;8.15;;
56037;SDS011;41907;47.848;9.000;2023-09-12T05:49:10;13.00;;;7.78;;
56037;SDS011;41907;47.848;9.000;2023-09-12T05:51:36;16.58;;;8.40;;
56037;SDS011;41907;47.848;9.000;2023-09-12T05:54:01;15.82;;;7.57;;
56037;SDS011;41907;47.848;9.000;2023-09-12T05:56:28;13.07;;;7.72;;
56037;SDS011;41907;47.848;9.000;2023-09-12T05:58:53;14.95;;;7.32;;
56037;SDS011;41907;47.848;9.000;2023-09-12T06:01:19;16.02;;;7.90;;
56037;SDS011;41907;47.848;9.000;2023-09-12T06:03:44;15.70;;;8.02;;
56037;SDS011;41907;47.848;9.000;2023-09-12T06:06:09;12.20;;;7.25;;
56037;SDS011;41907;47.848;9.000;2023-09-12T06:08:35;14.07;;;7.93;;
56037;SDS011;41907;47.848;9.000;2023-09-12T06:11:00;14.77;;;7.63;;
56037;SDS011;41907;47.848;9.000;2023-09-12T06:13:25;12.00;;;7.20;;
56037;SDS011;41907;47.848;9.000;2023-09-12T06:15:51;11.82;;;7.28;;
56037;SDS011;41907;47.848;9.000;2023-09-12T06:18:16;9.63;;;7.20;;
56037;SDS011;41907;47.848;9.000;2023-09-12T06:20:43;13.98;;;7.38;;
56037;SDS011;41907;47.848;9.000;2023-09-12T06:23:09;13.63;;;7.45;;
56037;SDS011;41907;47.848;9.000;2023-09-12T06:25:35;14.75;;;7.43;;
56037;SDS011;41907;47.848;9.000;2023-09-12T06:28:00;15.57;;;8.00;;
56037;SDS011;41907;47.848;9.000;2023-09-12T06:30:26;11.20;;;7.28;;
56037;SDS011;41907;47.848;9.000;2023-09-12T06:32:51;12.45;;;7.00;;
56037;SDS011;41907;47.848;9.000;2023-09-12T06:35:17;16.77;;;8.02;;
56037;SDS011;41907;47.848;9.000;2023-09-12T06:37:43;17.75;;;7.57;;
56037;SDS011;41907;47.848;9.000;2023-09-12T06:40:09;13.18;;;7.63;;
56037;SDS011;41907;47.848;9.000;2023-09-12T06:42:34;14.77;;;8.18;;
56037;SDS011;41907;47.848;9.000;2023-09-12T06:45:00;12.45;;;7.97;;
56037;SDS011;41907;47.848;9.000;2023-09-12T06:47:25;12.65;;;7.13;;
56037;SDS011;41907;47.848;9.000;2023-09-12T06:49:51;14.40;;;7.72;;
56037;SDS011;41907;47.848;9.000;2023-09-12T06:52:16;17.63;;;7.90;;
56037;SDS011;41907;47.848;9.000;2023-09-12T06:54:41;13.93;;;8.07;;
56037;SDS011;41907;47.848;9.000;2023-09-12T06:57:07;18.52;;;7.90;;
56037;SDS011;41907;47.848;9.000;2023-09-12T06:59:32;17.92;;;8.85;;
56037;SDS011;41907;47.848;9.000;2023-09-12T07:01:58;15.30;;;8.00;;
56037;SDS011;41907;47.848;9.000;2023-09-12T07:04:23;18.92;;;8.40;;
56037;SDS011;41907;47.848;9.000;2023-09-12T07:06:49;14.80;;;8.52;;
56037;SDS011;41907;47.848;9.000;2023-09-12T07:09:16;15.90;;;7.90;;
56037;SDS011;41907;47.848;9.000;2023-09-12T07:11:41;16.38;;;7.50;;
56037;SDS011;41907;47.848;9.000;2023-09-12T07:14:07;18.25;;;7.72;;
56037;SDS011;41907;47.848;9.000;2023-09-12T07:16:34;16.88;;;7.95;;
56037;SDS011;41907;47.848;9.000;2023-09-12T07:18:59;15.23;;;7.60;;
56037;SDS011;41907;47.848;9.000;2023-09-12T07:21:25;13.68;;;7.35;;
56037;SDS011;41907;47.848;9.000;2023-09-12T07:23:50;18.08;;;7.20;;
56037;SDS011;41907;47.848;9.000;2023-09-12T07:26:15;9.15;;;6.63;;
56037;SDS011;41907;47.848;9.000;2023-09-12T07:28:41;14.38;;;7.10;;
56037;SDS011;41907;47.848;9.000;2023-09-12T07:31:06;12.30;;;6.55;;
56037;SDS011;41907;47.848;9.000;2023-09-12T07:33:32;11.93;;;6.88;;
56037;SDS011;41907;47.848;9.000;2023-09-12T07:35:57;15.15;;;7.18;;
56037;SDS011;41907;47.848;9.000;2023-09-12T07:38:24;15.77;;;6.78;;
56037;SDS011;41907;47.848;9.000;2023-09-12T07:40:50;14.13;;;7.40;;
56037;SDS011;41907;47.848;9.000;2023-09-12T07:43:15;14.20;;;6.78;;
56037;SDS011;41907;47.848;9.000;2023-09-12T07:45:41;8.95;;;7.55;;
56037;SDS011;41907;47.848;9.000;2023-09-12T07:48:07;10.00;;;7.38;;
56037;SDS011;41907;47.848;9.000;2023-09-12T07:50:34;9.77;;;7.32;;
56037;SDS011;41907;47.848;9.000;2023-09-12T07:52:59;11.32;;;7.55;;
56037;SDS011;41907;47.848;9.000;2023-09-12T07:55:25;7.65;;;6.85;;
56037;SDS011;41907;47.848;9.000;2023-09-12T07:57:50;9.32;;;8.18;;
56037;SDS011;41907;47.848;9.000;2023-09-12T08:00:16;9.35;;;7.10;;
56037;SDS011;41907;47.848;9.000;2023-09-12T08:02:42;10.52;;;7.60;;
56037;SDS011;41907;47.848;9.000;2023-09-12T08:05:07;8.00;;;7.03;;
56037;SDS011;41907;47.848;9.000;2023-09-12T08:07:34;8.90;;;7.00;;
56037;SDS011;41907;47.848;9.000;2023-09-12T08:09:59;10.23;;;6.45;;
56037;SDS011;41907;47.848;9.000;2023-09-12T08:12:26;9.13;;;7.20;;
56037;SDS011;41907;47.848;9.000;2023-09-12T08:14:52;8.05;;;7.18;;
56037;SDS011;41907;47.848;9.000;2023-09-12T08:17:18;7.18;;;6.47;;
56037;SDS011;41907;47.848;9.000;2023-09-12T08:19:44;8.13;;;6.95;;
56037;SDS011;41907;47.848;9.000;2023-09-12T08:22:10;9.40;;;6.93;;
56037;SDS011;41907;47.848;9.000;2023-09-12T08:24:36;9.15;;;6.93;;
56037;SDS011;41907;47.848;9.000;2023-09-12T08:27:03;9.55;;;6.47;;
56037;SDS011;41907;47.848;9.000;2023-09-12T08:29:28;11.35;;;7.75;;
56037;SDS011;41907;47.848;9.000;2023-09-12T08:31:54;9.05;;;6.85;;
56037;SDS011;41907;47.848;9.000;2023-09-12T08:34:20;10.00;;;7.18;;
56037;SDS011;41907;47.848;9.000;2023-09-12T08:36:46;8.77;;;6.75;;
56037;SDS011;41907;47.848;9.000;2023-09-12T08:39:16;17.48;;;10.38;;
56037;SDS011;41907;47.848;9.000;2023-09-12T08:41:42;23.35;;;17.77;;
56037;SDS011;41907;47.848;9.000;2023-09-12T08:44:08;12.85;;;10.65;;
56037;SDS011;41907;47.848;9.000;2023-09-12T08:46:34;15.52;;;10.73;;
56037;SDS011;41907;47.848;9.000;2023-09-12T08:49:02;17.05;;;10.45;;
56037;SDS011;41907;47.848;9.000;2023-09-12T08:51:29;10.75;;;7.65;;
56037;SDS011;41907;47.848;9.000;2023-09-12T08:53:55;15.32;;;9.32;;
56037;SDS011;41907;47.848;9.000;2023-09-12T08:56:21;11.65;;;8.30;;
56037;SDS011;41907;47.848;9.000;2023-09-12T08:58:46;13.90;;;10.05;;
56037;SDS011;41907;47.848;9.000;2023-09-12T09:01:13;17.27;;;13.05;;
56037;SDS011;41907;47.848;9.000;2023-09-12T09:03:40;13.88;;;9.20;;
56037;SDS011;41907;47.848;9.000;2023-09-12T09:06:10;9.10;;;7.15;;
56037;SDS011;41907;47.848;9.000;2023-09-12T09:08:36;8.85;;;7.95;;
56037;SDS011;41907;47.848;9.000;2023-09-12T09:11:02;13.30;;;9.52;;
56037;SDS011;41907;47.848;9.000;2023-09-12T09:13:29;9.77;;;6.90;;
56037;SDS011;41907;47.848;9.000;2023-09-12T09:16:16;11.55;;;10.43;;
56037;SDS011;41907;47.848;9.000;2023-09-12T09:18:57;13.52;;;12.30;;
56037;SDS011;41907;47.848;9.000;2023-09-12T09:21:23;8.13;;;6.18;;
56037;SDS011;41907;47.848;9.000;2023-09-12T09:23:51;8.32;;;6.90;;
56037;SDS011;41907;47.848;9.000;2023-09-12T09:26:18;8.68;;;6.25;;
56037;SDS011;41907;47.848;9.000;2023-09-12T09:28:44;7.50;;;6.75;;
56037;SDS011;41907;47.848;9.000;2023-09-12T09:31:10;7.22;;;6.43;;
56037;SDS011;41907;47.848;9.000;2023-09-12T09:33:36;7.18;;;6.50;;
56037;SDS011;41907;47.848;9.000;2023-09-12T09:36:03;7.32;;;6.68;;
56037;SDS011;41907;47.848;9.000;2023-09-12T09:38:30;7.07;;;6.40;;
56037;SDS011;41907;47.848;9.000;2023-09-12T09:40:55;6.97;;;6.28;;
56037;SDS011;41907;47.848;9.000;2023-09-12T09:43:21;7.60;;;6.22;;
56037;SDS011;41907;47.848;9.000;2023-09-12T09:45:47;8.05;;;6.20;;
56037;SDS011;41907;47.848;9.000;2023-09-12T09:48:22;9.77;;;6.20;;
56037;SDS011;41907;47.848;9.000;2023-09-12T09:50:49;7.20;;;6.50;;
56037;SDS011;41907;47.848;9.000;2023-09-12T09:53:15;6.85;;;6.20;;
56037;SDS011;41907;47.848;9.000;2023-09-12T09:55:40;7.05;;;6.35;;
56037;SDS011;41907;47.848;9.000;2023-09-12T09:58:07;7.15;;;6.10;;
56037;SDS011;41907;47.848;9.000;2023-09-12T10:00:33;8.15;;;6.60;;
56037;SDS011;41907;47.848;9.000;2023-09-12T10:03:02;7.32;;;6.60;;
56037;SDS011;41907;47.848;9.000;2023-09-12T10:05:29;8.90;;;6.50;;
56037;SDS011;41907;47.848;9.000;2023-09-12T10:07:57;10.77;;;7.10;;
56037;SDS011;41907;47.848;9.000;2023-09-12T10:10:24;6.50;;;5.95;;
56037;SDS011;41907;47.848;9.000;2023-09-12T10:12:57;7.25;;;6.00;;
56037;SDS011;41907;47.848;9.000;2023-09-12T10:15:25;8.45;;;7.22;;
56037;SDS011;41907;47.848;9.000;2023-09-12T10:17:55;7.22;;;6.53;;
56037;SDS011;41907;47.848;9.000;2023-09-12T10:20:24;13.32;;;6.90;;
56037;SDS011;41907;47.848;9.000;2023-09-12T10:23:11;9.05;;;7.00;;
56037;SDS011;41907;47.848;9.000;2023-09-12T10:25:39;7.20;;;6.60;;
56037;SDS011;41907;47.848;9.000;2023-09-12T10:28:06;8.85;;;7.22;;
56037;SDS011;41907;47.848;9.000;2023-09-12T10:30:32;7.70;;;7.00;;
56037;SDS011;41907;47.848;9.000;2023-09-12T10:32:57;8.35;;;6.65;;
56037;SDS011;41907;47.848;9.000;2023-09-12T10:35:27;8.55;;;7.40;;
56037;SDS011;41907;47.848;9.000;2023-09-12T10:37:54;8.60;;;7.15;;
56037;SDS011;41907;47.848;9.000;2023-09-12T10:40:24;11.23;;;7.90;;
56037;SDS011;41907;47.848;9.000;2023-09-12T10:42:51;7.72;;;7.03;;
56037;SDS011;41907;47.848;9.000;2023-09-12T10:45:18;7.68;;;6.88;;
56037;SDS011;41907;47.848;9.000;2023-09-12T10:47:45;8.25;;;7.28;;
56037;SDS011;41907;47.848;9.000;2023-09-12T10:50:11;9.38;;;7.72;;
56037;SDS011;41907;47.848;9.000;2023-09-12T10:52:37;8.20;;;6.43;;
56037;SDS011;41907;47.848;9.000;2023-09-12T10:55:05;8.50;;;7.70;;
56037;SDS011;41907;47.848;9.000;2023-09-12T10:57:31;9.18;;;8.07;;
56037;SDS011;41907;47.848;9.000;2023-09-12T11:02:32;10.88;;;7.95;;
56037;SDS011;41907;47.848;9.000;2023-09-12T11:05:00;7.80;;;7.03;;
56037;SDS011;41907;47.848;9.000;2023-09-12T11:12:41;26.80;;;22.42;;
56037;SDS011;41907;47.848;9.000;2023-09-12T11:15:08;9.77;;;7.60;;
56037;SDS011;41907;47.848;9.000;2023-09-12T11:17:38;10.43;;;7.22;;
56037;SDS011;41907;47.848;9.000;2023-09-12T11:20:04;9.90;;;8.23;;
56037;SDS011;41907;47.848;9.000;2023-09-12T11:22:37;9.55;;;7.68;;
56037;SDS011;41907;47.848;9.000;2023-09-12T11:25:05;9.18;;;7.88;;
56037;SDS011;41907;47.848;9.000;2023-09-12T11:28:01;8.70;;;7.18;;
56037;SDS011;41907;47.848;9.000;2023-09-12T11:30:29;7.55;;;6.85;;
56037;SDS011;41907;47.848;9.000;2023-09-12T11:32:56;11.73;;;8.00;;
56037;SDS011;41907;47.848;9.000;2023-09-12T11:35:22;8.55;;;7.15;;
56037;SDS011;41907;47.848;9.000;2023-09-12T11:37:49;8.18;;;7.38;;
56037;SDS011;41907;47.848;9.000;2023-09-12T11:40:17;8.38;;;7.57;;
56037;SDS011;41907;47.848;9.000;2023-09-12T11:42:47;9.18;;;7.95;;
56037;SDS011;41907;47.848;9.000;2023-09-12T11:45:14;7.90;;;7.13;;
56037;SDS011;41907;47.848;9.000;2023-09-12T11:47:43;8.95;;;7.97;;
56037;SDS011;41907;47.848;9.000;2023-09-12T11:58:33;8.35;;;7.55;;
56037;SDS011;41907;47.848;9.000;2023-09-12T12:00:59;8.40;;;6.63;;
56037;SDS011;41907;47.848;9.000;2023-09-12T12:03:25;8.82;;;7.65;;
56037;SDS011;41907;47.848;9.000;2023-09-12T12:05:51;10.20;;;7.15;;
56037;SDS011;41907;47.848;9.000;2023-09-12T12:08:18;9.70;;;8.07;;
56037;SDS011;41907;47.848;9.000;2023-09-12T12:10:46;11.70;;;8.13;;
56037;SDS011;41907;47.848;9.000;2023-09-12T12:13:18;9.30;;;8.13;;
56037;SDS011;41907;47.848;9.000;2023-09-12T12:15:44;8.90;;;7.70;;
56037;SDS011;41907;47.848;9.000;2023-09-12T12:18:09;8.27;;;7.18;;
56037;SDS011;41907;47.848;9.000;2023-09-12T12:20:35;8.63;;;7.75;;
56037;SDS011;41907;47.848;9.000;2023-09-12T12:23:00;8.10;;;7.32;;
56037;SDS011;41907;47.848;9.000;2023-09-12T12:25:26;13.88;;;12.38;;
56037;SDS011;41907;47.848;9.000;2023-09-12T12:27:51;9.65;;;7.68;;
56037;SDS011;41907;47.848;9.000;2023-09-12T12:30:17;7.95;;;7.15;;
56037;SDS011;41907;47.848;9.000;2023-09-12T12:32:44;7.72;;;6.70;;
56037;SDS011;41907;47.848;9.000;2023-09-12T12:35:21;8.82;;;7.05;;
56037;SDS011;41907;47.848;9.000;2023-09-12T12:37:50;9.63;;;7.40;;
56037;SDS011;41907;47.848;9.000;2023-09-12T12:40:16;9.75;;;6.88;;
56037;SDS011;41907;47.848;9.000;2023-09-12T12:42:42;6.38;;;5.78;;
56037;SDS011;41907;47.848;9.000;2023-09-12T12:47:45;9.95;;;6.82;;
56037;SDS011;41907;47.848;9.000;2023-09-12T12:50:14;7.15;;;6.45;;
56037;SDS011;41907;47.848;9.000;2023-09-12T12:52:41;6.90;;;6.18;;
56037;SDS011;41907;47.848;9.000;2023-09-12T12:55:07;11.35;;;7.53;;
56037;SDS011;41907;47.848;9.000;2023-09-12T12:57:35;8.18;;;7.35;;
56037;SDS011;41907;47.848;9.000;2023-09-12T13:00:02;7.65;;;6.82;;
56037;SDS011;41907;47.848;9.000;2023-09-12T13:02:40;9.70;;;6.82;;
56037;SDS011;41907;47.848;9.000;2023-09-12T13:05:07;9.93;;;6.97;;
56037;SDS011;41907;47.848;9.000;2023-09-12T13:07:45;8.73;;;6.90;;
56037;SDS011;41907;47.848;9.000;2023-09-12T13:10:10;8.88;;;6.75;;
56037;SDS011;41907;47.848;9.000;2023-09-12T13:12:36;7.40;;;6.70;;
56037;SDS011;41907;47.848;9.000;2023-09-12T13:15:02;8.65;;;6.55;;
56037;SDS011;41907;47.848;9.000;2023-09-12T13:17:28;8.38;;;6.90;;
56037;SDS011;41907;47.848;9.000;2023-09-12T13:19:54;9.82;;;6.32;;
56037;SDS011;41907;47.848;9.000;2023-09-12T13:22:19;8.98;;;6.63;;
56037;SDS011;41907;47.848;9.000;2023-09-12T13:24:44;8.13;;;6.72;;
56037;SDS011;41907;47.848;9.000;2023-09-12T13:27:10;8.07;;;7.03;;
56037;SDS011;41907;47.848;9.000;2023-09-12T13:29:35;10.93;;;7.43;;
56037;SDS011;41907;47.848;9.000;2023-09-12T13:32:00;7.63;;;6.20;;
56037;SDS011;41907;47.848;9.000;2023-09-12T13:34:26;7.35;;;6.60;;
56037;SDS011;41907;47.848;9.000;2023-09-12T13:36:51;15.25;;;12.00;;
56037;SDS011;41907;47.848;9.000;2023-09-12T13:39:16;8.05;;;7.00;;
56037;SDS011;41907;47.848;9.000;2023-09-12T13:41:42;7.95;;;6.13;;
56037;SDS011;41907;47.848;9.000;2023-09-12T13:44:08;6.85;;;6.20;;
56037;SDS011;41907;47.848;9.000;2023-09-12T13:46:35;7.30;;;6.60;;
56037;SDS011;41907;47.848;9.000;2023-09-12T13:49:00;10.45;;;6.60;;
56037;SDS011;41907;47.848;9.000;2023-09-12T13:51:28;8.77;;;7.18;;
56037;SDS011;41907;47.848;9.000;2023-09-12T13:53:54;7.68;;;6.78;;
56037;SDS011;41907;47.848;9.000;2023-09-12T13:56:19;6.32;;;5.82;;
56037;SDS011;41907;47.848;9.000;2023-09-12T13:58:44;7.25;;;6.22;;
56037;SDS011;41907;47.848;9.000;2023-09-12T14:01:10;7.63;;;6.43;;
56037;SDS011;41907;47.848;9.000;2023-09-12T14:03:35;7.75;;;6.25;;
56037;SDS011;41907;47.848;9.000;2023-09-12T14:06:00;8.05;;;6.47;;
56037;SDS011;41907;47.848;9.000;2023-09-12T14:08:25;6.80;;;6.15;;
56037;SDS011;41907;47.848;9.000;2023-09-12T14:10:51;7.85;;;7.05;;
56037;SDS011;41907;47.848;9.000;2023-09-12T14:13:16;8.00;;;6.68;;
56037;SDS011;41907;47.848;9.000;2023-09-12T14:15:42;7.85;;;7.05;;
56037;SDS011;41907;47.848;9.000;2023-09-12T14:18:07;6.82;;;6.22;;
56037;SDS011;41907;47.848;9.000;2023-09-12T14:20:33;7.28;;;6.57;;
56037;SDS011;41907;47.848;9.000;2023-09-12T14:22:58;8.57;;;7.47;;
56037;SDS011;41907;47.848;9.000;2023-09-12T14:25:23;8.18;;;6.72;;
56037;SDS011;41907;47.848;9.000;2023-09-12T14:27:49;11.38;;;10.25;;
56037;SDS011;41907;47.848;9.000;2023-09-12T14:30:14;14.20;;;11.20;;
56037;SDS011;41907;47.848;9.000;2023-09-12T14:32:40;8.30;;;7.10;;
56037;SDS011;41907;47.848;9.000;2023-09-12T14:35:05;10.27;;;7.20;;
56037;SDS011;41907;47.848;9.000;2023-09-12T14:37:32;12.23;;;8.18;;
56037;SDS011;41907;47.848;9.000;2023-09-12T14:39:57;10.90;;;8.60;;
56037;SDS011;41907;47.848;9.000;2023-09-12T14:42:23;14.23;;;9.02;;
56037;SDS011;41907;47.848;9.000;2023-09-12T14:44:48;9.38;;;7.47;;
56037;SDS011;41907;47.848;9.000;2023-09-12T14:47:14;9.05;;;7.13;;
56037;SDS011;41907;47.848;9.000;2023-09-12T14:49:39;8.27;;;7.30;;
56037;SDS011;41907;47.848;9.000;2023-09-12T14:52:05;9.43;;;7.95;;